Live aus Altenrhein
LIVE
LSZR 272250Z AUTO 10003KT 030V210 9999 -RA BKN060 BKN080 BKN110 17/16 Q1012

People´s Info Center:

Öffnungszeiten Mo-Fr, 8-18 Uhr

 

info@peoples.ch

 
Aus Österreich:

T: +43 (0)5572 203 610

 

Aus CH / LI / DE:

T: +41 (0)71 858 51 60

 

Autovermietung am Flughafen Altenrhein

Sixt, Avis, Europcar und Hertz.

 

Mit einem passenden Mietwagen sind Sie auf Ihrer Urlaubstour oder für Ihre Geschäftsreise flexibel und günstig unterwegs. Mieten Sie direkt am Flughafen Altenrhein Ihr gewünschtes Mietauto von Sixt, Avis, Europcar oder Hertz.

 

Sixt-Filiale am Flughafen

Direkt im Terminal steht Ihnen für Ihre Auto-Mietung eine Sixt-Filiale zur Verfügung. Die Mitarbeiter stehen Ihnen für die Reservierung und alle Fragen gerne zur Verfügung

 

Sixt Autovermietung
Flughafenstrasse 11
9423 Altenrhein

 

Öffnungszeiten

Montag - Freitag 07.30 - 18.30 Uhr

Samstag 08.00 - 12.00 Uhr